sensor_id;sensor_type;location;lat;lon;timestamp;pressure;altitude;pressure_sealevel;temperature
64904;BMP280;51401;48.882;12.598;2022-12-11T00:00:05;109232.47;;;0.91
64904;BMP280;51401;48.882;12.598;2022-12-11T00:02:30;108933.03;;;0.79
64904;BMP280;51401;48.882;12.598;2022-12-11T00:04:55;108773.38;;;0.80
64904;BMP280;51401;48.882;12.598;2022-12-11T00:07:21;108608.72;;;0.78
64904;BMP280;51401;48.882;12.598;2022-12-11T00:09:46;108357.28;;;0.67
64904;BMP280;51401;48.882;12.598;2022-12-11T00:12:11;108251.38;;;0.71
64904;BMP280;51401;48.882;12.598;2022-12-11T00:14:37;108030.59;;;0.65
64904;BMP280;51401;48.882;12.598;2022-12-11T00:17:02;107870.28;;;0.64
64904;BMP280;51401;48.882;12.598;2022-12-11T00:19:28;107660.56;;;0.61
64904;BMP280;51401;48.882;12.598;2022-12-11T00:21:53;107574.06;;;0.70
64904;BMP280;51401;48.882;12.598;2022-12-11T00:24:18;107390.72;;;0.69
64904;BMP280;51401;48.882;12.598;2022-12-11T00:26:44;107047.00;;;0.52
64904;BMP280;51401;48.882;12.598;2022-12-11T00:29:10;106784.69;;;0.46
64904;BMP280;51401;48.882;12.598;2022-12-11T00:31:39;106552.00;;;0.46
64904;BMP280;51401;48.882;12.598;2022-12-11T00:34:04;106379.69;;;0.49
64904;BMP280;51401;48.882;12.598;2022-12-11T00:36:30;106194.03;;;0.46
64904;BMP280;51401;48.882;12.598;2022-12-11T00:38:55;105991.25;;;0.46
64904;BMP280;51401;48.882;12.598;2022-12-11T00:41:20;105711.16;;;0.42
64904;BMP280;51401;48.882;12.598;2022-12-11T00:43:46;105499.13;;;0.40
64904;BMP280;51401;48.882;12.598;2022-12-11T00:46:11;105293.97;;;0.38
64904;BMP280;51401;48.882;12.598;2022-12-11T00:48:37;105108.09;;;0.40
64904;BMP280;51401;48.882;12.598;2022-12-11T00:51:03;104904.34;;;0.42
64904;BMP280;51401;48.882;12.598;2022-12-11T00:53:29;104691.59;;;0.40
64904;BMP280;51401;48.882;12.598;2022-12-11T00:55:54;104410.38;;;0.33
64904;BMP280;51401;48.882;12.598;2022-12-11T00:58:20;104239.25;;;0.33
64904;BMP280;51401;48.882;12.598;2022-12-11T01:00:45;104085.72;;;0.35
64904;BMP280;51401;48.882;12.598;2022-12-11T01:03:13;103857.69;;;0.26
64904;BMP280;51401;48.882;12.598;2022-12-11T01:05:38;103598.94;;;0.25
64904;BMP280;51401;48.882;12.598;2022-12-11T01:08:04;103394.66;;;0.25
64904;BMP280;51401;48.882;12.598;2022-12-11T01:10:30;103289.16;;;0.33
64904;BMP280;51401;48.882;12.598;2022-12-11T01:13:01;103076.78;;;0.29
64904;BMP280;51401;48.882;12.598;2022-12-11T01:15:37;102923.31;;;0.24
64904;BMP280;51401;48.882;12.598;2022-12-11T01:18:03;102818.28;;;0.27
64904;BMP280;51401;48.882;12.598;2022-12-11T01:20:28;102696.72;;;0.26
64904;BMP280;51401;48.882;12.598;2022-12-11T01:22:55;102639.41;;;0.29
64904;BMP280;51401;48.882;12.598;2022-12-11T01:25:21;102512.94;;;0.26
64904;BMP280;51401;48.882;12.598;2022-12-11T01:27:49;102390.09;;;0.15
64904;BMP280;51401;48.882;12.598;2022-12-11T01:30:15;102341.31;;;0.24
64904;BMP280;51401;48.882;12.598;2022-12-11T01:32:40;102205.63;;;0.21
64904;BMP280;51401;48.882;12.598;2022-12-11T01:35:07;102095.88;;;0.21
64904;BMP280;51401;48.882;12.598;2022-12-11T01:37:33;101992.41;;;0.12
64904;BMP280;51401;48.882;12.598;2022-12-11T01:39:59;101958.25;;;0.19
64904;BMP280;51401;48.882;12.598;2022-12-11T01:42:25;101877.78;;;0.10
64904;BMP280;51401;48.882;12.598;2022-12-11T01:47:16;101715.84;;;0.13
64904;BMP280;51401;48.882;12.598;2022-12-11T01:49:42;101651.84;;;0.21
64904;BMP280;51401;48.882;12.598;2022-12-11T01:52:09;101584.19;;;0.05
64904;BMP280;51401;48.882;12.598;2022-12-11T01:54:35;101573.19;;;0.11
64904;BMP280;51401;48.882;12.598;2022-12-11T01:57:04;101534.91;;;0.11
64904;BMP280;51401;48.882;12.598;2022-12-11T01:59:32;101501.53;;;0.13
64904;BMP280;51401;48.882;12.598;2022-12-11T02:02:13;101385.19;;;0.12
64904;BMP280;51401;48.882;12.598;2022-12-11T02:04:39;101352.69;;;0.01
64904;BMP280;51401;48.882;12.598;2022-12-11T02:07:05;101308.50;;;0.07
64904;BMP280;51401;48.882;12.598;2022-12-11T02:09:33;101252.38;;;0.07
64904;BMP280;51401;48.882;12.598;2022-12-11T02:14:58;101123.72;;;0.03
64904;BMP280;51401;48.882;12.598;2022-12-11T02:17:38;101058.25;;;-0.03
64904;BMP280;51401;48.882;12.598;2022-12-11T02:22:52;101025.53;;;-0.06
64904;BMP280;51401;48.882;12.598;2022-12-11T02:25:25;101050.47;;;-0.08
64904;BMP280;51401;48.882;12.598;2022-12-11T02:30:41;101045.38;;;-0.08
64904;BMP280;51401;48.882;12.598;2022-12-11T02:33:10;101111.16;;;0.01
64904;BMP280;51401;48.882;12.598;2022-12-11T02:35:40;101039.84;;;-0.05
64904;BMP280;51401;48.882;12.598;2022-12-11T02:38:10;101055.56;;;-0.08
64904;BMP280;51401;48.882;12.598;2022-12-11T02:40:39;101056.00;;;-0.11
64904;BMP280;51401;48.882;12.598;2022-12-11T02:43:09;101037.16;;;-0.10
64904;BMP280;51401;48.882;12.598;2022-12-11T02:45:36;101045.38;;;-0.08
64904;BMP280;51401;48.882;12.598;2022-12-11T02:48:04;101041.63;;;-0.05
64904;BMP280;51401;48.882;12.598;2022-12-11T02:50:31;101068.47;;;-0.03
64904;BMP280;51401;48.882;12.598;2022-12-11T02:52:58;101057.50;;;-0.03
64904;BMP280;51401;48.882;12.598;2022-12-11T02:55:26;101094.94;;;-0.04
64904;BMP280;51401;48.882;12.598;2022-12-11T02:58:02;101109.09;;;-0.08
64904;BMP280;51401;48.882;12.598;2022-12-11T03:00:28;101158.69;;;-0.04
64904;BMP280;51401;48.882;12.598;2022-12-11T03:02:54;101183.63;;;-0.06
64904;BMP280;51401;48.882;12.598;2022-12-11T03:05:19;101221.88;;;-0.06
64904;BMP280;51401;48.882;12.598;2022-12-11T03:07:45;101272.31;;;-0.08
64904;BMP280;51401;48.882;12.598;2022-12-11T03:10:13;101345.66;;;-0.03
64904;BMP280;51401;48.882;12.598;2022-12-11T03:12:41;101377.63;;;-0.01
64904;BMP280;51401;48.882;12.598;2022-12-11T03:15:10;101339.03;;;-0.11
64904;BMP280;51401;48.882;12.598;2022-12-11T03:17:41;101379.78;;;0.02
64904;BMP280;51401;48.882;12.598;2022-12-11T03:25:52;101143.94;;;-0.20
64904;BMP280;51401;48.882;12.598;2022-12-11T03:31:10;101201.69;;;-0.25
64904;BMP280;51401;48.882;12.598;2022-12-11T03:33:40;101287.16;;;-0.23
64904;BMP280;51401;48.882;12.598;2022-12-11T03:36:21;101325.66;;;-0.31
64904;BMP280;51401;48.882;12.598;2022-12-11T03:39:08;101356.59;;;-0.34
64904;BMP280;51401;48.882;12.598;2022-12-11T03:41:36;101377.81;;;-0.39
64904;BMP280;51401;48.882;12.598;2022-12-11T03:44:03;101453.50;;;-0.40
64904;BMP280;51401;48.882;12.598;2022-12-11T03:46:31;101501.16;;;-0.40
64904;BMP280;51401;48.882;12.598;2022-12-11T03:49:00;101558.97;;;-0.35
64904;BMP280;51401;48.882;12.598;2022-12-11T03:51:28;101595.06;;;-0.38
64904;BMP280;51401;48.882;12.598;2022-12-11T03:53:55;101647.63;;;-0.43
64904;BMP280;51401;48.882;12.598;2022-12-11T03:56:20;101692.34;;;-0.40
64904;BMP280;51401;48.882;12.598;2022-12-11T03:58:46;101731.16;;;-0.45
64904;BMP280;51401;48.882;12.598;2022-12-11T04:01:11;101762.53;;;-0.44
64904;BMP280;51401;48.882;12.598;2022-12-11T04:03:37;101740.56;;;-0.52
64904;BMP280;51401;48.882;12.598;2022-12-11T04:06:02;101737.03;;;-0.51
64904;BMP280;51401;48.882;12.598;2022-12-11T04:08:28;101708.78;;;-0.62
64904;BMP280;51401;48.882;12.598;2022-12-11T04:10:53;101709.56;;;-0.62
64904;BMP280;51401;48.882;12.598;2022-12-11T04:13:39;101736.22;;;-0.51
64904;BMP280;51401;48.882;12.598;2022-12-11T04:16:05;101710.34;;;-0.61
64904;BMP280;51401;48.882;12.598;2022-12-11T04:18:31;101668.03;;;-0.69
64904;BMP280;51401;48.882;12.598;2022-12-11T04:21:14;101609.81;;;-0.78
64904;BMP280;51401;48.882;12.598;2022-12-11T04:23:58;101693.28;;;-0.74
64904;BMP280;51401;48.882;12.598;2022-12-11T04:26:39;101668.00;;;-0.88
64904;BMP280;51401;48.882;12.598;2022-12-11T04:29:04;101707.75;;;-0.87
64904;BMP280;51401;48.882;12.598;2022-12-11T04:31:30;101716.16;;;-0.93
64904;BMP280;51401;48.882;12.598;2022-12-11T04:33:55;101750.47;;;-0.89
64904;BMP280;51401;48.882;12.598;2022-12-11T04:36:20;101733.63;;;-0.96
64904;BMP280;51401;48.882;12.598;2022-12-11T04:38:46;101708.09;;;-1.03
64904;BMP280;51401;48.882;12.598;2022-12-11T04:41:13;101739.41;;;-1.09
64904;BMP280;51401;48.882;12.598;2022-12-11T04:43:38;101708.06;;;-1.22
64904;BMP280;51401;48.882;12.598;2022-12-11T04:46:06;101798.16;;;-1.16
64904;BMP280;51401;48.882;12.598;2022-12-11T04:48:32;101809.66;;;-1.27
64904;BMP280;51401;48.882;12.598;2022-12-11T04:50:57;101868.03;;;-1.25
64904;BMP280;51401;48.882;12.598;2022-12-11T04:53:23;101949.47;;;-1.25
64904;BMP280;51401;48.882;12.598;2022-12-11T04:55:49;101997.06;;;-1.26
64904;BMP280;51401;48.882;12.598;2022-12-11T04:58:14;102017.16;;;-1.31
64904;BMP280;51401;48.882;12.598;2022-12-11T05:00:40;102056.13;;;-1.30
64904;BMP280;51401;48.882;12.598;2022-12-11T05:03:06;102155.69;;;-1.25
64904;BMP280;51401;48.882;12.598;2022-12-11T05:05:31;102202.47;;;-1.26
64904;BMP280;51401;48.882;12.598;2022-12-11T05:07:56;102249.28;;;-1.27
64904;BMP280;51401;48.882;12.598;2022-12-11T05:10:22;102302.75;;;-1.27
64904;BMP280;51401;48.882;12.598;2022-12-11T05:12:47;102330.13;;;-1.29
64904;BMP280;51401;48.882;12.598;2022-12-11T05:15:13;102379.91;;;-1.27
64904;BMP280;51401;48.882;12.598;2022-12-11T05:17:38;102386.28;;;-1.31
64904;BMP280;51401;48.882;12.598;2022-12-11T05:20:04;102444.06;;;-1.31
64904;BMP280;51401;48.882;12.598;2022-12-11T05:22:30;102495.44;;;-1.28
64904;BMP280;51401;48.882;12.598;2022-12-11T05:24:55;102520.91;;;-1.28
64904;BMP280;51401;48.882;12.598;2022-12-11T05:27:21;102521.38;;;-1.32
64904;BMP280;51401;48.882;12.598;2022-12-11T05:29:46;102571.03;;;-1.28
64904;BMP280;51401;48.882;12.598;2022-12-11T05:32:11;102568.19;;;-1.33
64904;BMP280;51401;48.882;12.598;2022-12-11T05:34:37;102559.94;;;-1.35
64904;BMP280;51401;48.882;12.598;2022-12-11T05:37:02;102567.56;;;-1.35
64904;BMP280;51401;48.882;12.598;2022-12-11T05:39:28;102605.56;;;-1.34
64904;BMP280;51401;48.882;12.598;2022-12-11T05:41:53;102604.31;;;-1.38
64904;BMP280;51401;48.882;12.598;2022-12-11T05:44:18;102606.06;;;-1.38
64904;BMP280;51401;48.882;12.598;2022-12-11T05:46:43;102604.50;;;-1.39
64904;BMP280;51401;48.882;12.598;2022-12-11T05:49:09;102623.88;;;-1.38
64904;BMP280;51401;48.882;12.598;2022-12-11T05:51:34;102691.03;;;-1.31
64904;BMP280;51401;48.882;12.598;2022-12-11T05:54:00;102678.59;;;-1.34
64904;BMP280;51401;48.882;12.598;2022-12-11T05:56:28;102702.50;;;-1.35
64904;BMP280;51401;48.882;12.598;2022-12-11T05:58:54;102673.25;;;-1.39
64904;BMP280;51401;48.882;12.598;2022-12-11T06:01:25;102654.94;;;-1.43
64904;BMP280;51401;48.882;12.598;2022-12-11T06:03:53;102676.41;;;-1.37
64904;BMP280;51401;48.882;12.598;2022-12-11T06:06:18;102666.84;;;-1.35
64904;BMP280;51401;48.882;12.598;2022-12-11T06:08:44;102621.06;;;-1.43
64904;BMP280;51401;48.882;12.598;2022-12-11T06:11:12;102609.00;;;-1.49
64904;BMP280;51401;48.882;12.598;2022-12-11T06:13:40;102693.91;;;-1.42
64904;BMP280;51401;48.882;12.598;2022-12-11T06:16:07;102696.19;;;-1.47
64904;BMP280;51401;48.882;12.598;2022-12-11T06:18:41;102742.28;;;-1.42
64904;BMP280;51401;48.882;12.598;2022-12-11T06:23:44;102757.59;;;-1.50
64904;BMP280;51401;48.882;12.598;2022-12-11T06:26:11;102750.59;;;-1.56
64904;BMP280;51401;48.882;12.598;2022-12-11T06:28:36;102791.81;;;-1.52
64904;BMP280;51401;48.882;12.598;2022-12-11T06:31:02;102880.25;;;-1.47
64904;BMP280;51401;48.882;12.598;2022-12-11T06:33:28;103003.25;;;-1.38
64904;BMP280;51401;48.882;12.598;2022-12-11T06:35:54;103076.59;;;-1.34
64904;BMP280;51401;48.882;12.598;2022-12-11T06:38:20;103135.41;;;-1.27
64904;BMP280;51401;48.882;12.598;2022-12-11T06:40:53;103256.44;;;-1.08
64904;BMP280;51401;48.882;12.598;2022-12-11T06:43:19;103222.53;;;-1.16
64904;BMP280;51401;48.882;12.598;2022-12-11T06:45:44;103246.09;;;-1.14
64904;BMP280;51401;48.882;12.598;2022-12-11T06:48:10;103285.13;;;-1.06
64904;BMP280;51401;48.882;12.598;2022-12-11T06:50:37;103316.53;;;-0.97
64904;BMP280;51401;48.882;12.598;2022-12-11T06:53:02;103319.88;;;-0.97
64904;BMP280;51401;48.882;12.598;2022-12-11T06:55:28;103300.59;;;-0.99
64904;BMP280;51401;48.882;12.598;2022-12-11T06:57:53;103278.78;;;-1.02
64904;BMP280;51401;48.882;12.598;2022-12-11T07:00:18;103247.56;;;-1.04
64904;BMP280;51401;48.882;12.598;2022-12-11T07:02:44;103277.50;;;-0.98
64904;BMP280;51401;48.882;12.598;2022-12-11T07:05:09;103263.34;;;-1.00
64904;BMP280;51401;48.882;12.598;2022-12-11T07:07:34;103266.34;;;-0.97
64904;BMP280;51401;48.882;12.598;2022-12-11T07:09:59;103208.88;;;-0.99
64904;BMP280;51401;48.882;12.598;2022-12-11T07:12:25;103179.06;;;-0.99
64904;BMP280;51401;48.882;12.598;2022-12-11T07:14:50;103194.09;;;-0.88
64904;BMP280;51401;48.882;12.598;2022-12-11T07:17:15;103135.78;;;-0.91
64904;BMP280;51401;48.882;12.598;2022-12-11T07:19:41;103199.19;;;-0.80
64904;BMP280;51401;48.882;12.598;2022-12-11T07:22:06;103123.53;;;-0.87
64904;BMP280;51401;48.882;12.598;2022-12-11T07:24:32;103102.19;;;-0.86
64904;BMP280;51401;48.882;12.598;2022-12-11T07:26:57;103037.03;;;-0.89
64904;BMP280;51401;48.882;12.598;2022-12-11T07:29:22;103066.34;;;-0.77
64904;BMP280;51401;48.882;12.598;2022-12-11T07:31:48;103036.72;;;-0.70
64904;BMP280;51401;48.882;12.598;2022-12-11T07:34:13;102916.16;;;-0.78
64904;BMP280;51401;48.882;12.598;2022-12-11T07:36:39;102909.38;;;-0.64
64904;BMP280;51401;48.882;12.598;2022-12-11T07:39:04;102876.69;;;-0.52
64904;BMP280;51401;48.882;12.598;2022-12-11T07:41:29;102803.31;;;-0.42
64904;BMP280;51401;48.882;12.598;2022-12-11T07:43:58;102687.22;;;-0.31
64904;BMP280;51401;48.882;12.598;2022-12-11T07:46:26;102527.84;;;-0.35
64904;BMP280;51401;48.882;12.598;2022-12-11T07:48:53;102310.13;;;-0.34
64904;BMP280;51401;48.882;12.598;2022-12-11T07:51:22;102124.44;;;-0.30
64904;BMP280;51401;48.882;12.598;2022-12-11T07:53:51;101925.56;;;-0.24
64904;BMP280;51401;48.882;12.598;2022-12-11T07:56:17;101785.72;;;-0.14
64904;BMP280;51401;48.882;12.598;2022-12-11T07:58:43;101640.13;;;-0.06
64904;BMP280;51401;48.882;12.598;2022-12-11T08:01:17;101413.78;;;-0.10
64904;BMP280;51401;48.882;12.598;2022-12-11T08:03:43;101194.81;;;-0.25
64904;BMP280;51401;48.882;12.598;2022-12-11T08:06:09;100974.69;;;-0.37
64904;BMP280;51401;48.882;12.598;2022-12-11T08:08:35;100889.78;;;-0.31
64904;BMP280;51401;48.882;12.598;2022-12-11T08:11:05;100674.97;;;-0.38
64904;BMP280;51401;48.882;12.598;2022-12-11T08:13:31;100509.56;;;-0.28
64904;BMP280;51401;48.882;12.598;2022-12-11T08:15:57;100414.84;;;-0.08
64904;BMP280;51401;48.882;12.598;2022-12-11T08:18:23;100205.59;;;-0.23
64904;BMP280;51401;48.882;12.598;2022-12-11T08:20:48;100058.41;;;-0.33
64904;BMP280;51401;48.882;12.598;2022-12-11T08:23:13;100055.34;;;0.08
64904;BMP280;51401;48.882;12.598;2022-12-11T08:25:39;99928.06;;;0.37
64904;BMP280;51401;48.882;12.598;2022-12-11T08:28:04;99794.97;;;0.50
64904;BMP280;51401;48.882;12.598;2022-12-11T08:30:29;99656.97;;;0.67
64904;BMP280;51401;48.882;12.598;2022-12-11T08:32:55;99447.00;;;0.61
64904;BMP280;51401;48.882;12.598;2022-12-11T08:35:21;99357.16;;;0.64
64904;BMP280;51401;48.882;12.598;2022-12-11T08:37:46;99191.59;;;0.63
64904;BMP280;51401;48.882;12.598;2022-12-11T08:40:12;99035.91;;;0.39
64904;BMP280;51401;48.882;12.598;2022-12-11T08:42:38;98987.06;;;0.56
64904;BMP280;51401;48.882;12.598;2022-12-11T08:45:04;98845.81;;;0.29
64904;BMP280;51401;48.882;12.598;2022-12-11T08:47:30;98799.84;;;0.34
64904;BMP280;51401;48.882;12.598;2022-12-11T08:49:55;98699.41;;;0.11
64904;BMP280;51401;48.882;12.598;2022-12-11T08:52:21;98645.34;;;0.33
64904;BMP280;51401;48.882;12.598;2022-12-11T08:54:46;98612.78;;;0.30
64904;BMP280;51401;48.882;12.598;2022-12-11T08:57:12;98581.72;;;0.28
64904;BMP280;51401;48.882;12.598;2022-12-11T08:59:37;98569.81;;;0.36
64904;BMP280;51401;48.882;12.598;2022-12-11T09:02:02;98515.38;;;0.46
64904;BMP280;51401;48.882;12.598;2022-12-11T09:04:28;98417.03;;;0.27
64904;BMP280;51401;48.882;12.598;2022-12-11T09:06:53;98389.00;;;0.40
64904;BMP280;51401;48.882;12.598;2022-12-11T09:09:18;98375.88;;;0.46
64904;BMP280;51401;48.882;12.598;2022-12-11T09:11:44;98394.22;;;0.75
64904;BMP280;51401;48.882;12.598;2022-12-11T09:14:09;98351.78;;;0.79
64904;BMP280;51401;48.882;12.598;2022-12-11T09:16:38;98311.78;;;0.88
64904;BMP280;51401;48.882;12.598;2022-12-11T09:19:06;98246.06;;;1.07
64904;BMP280;51401;48.882;12.598;2022-12-11T09:21:32;98158.38;;;0.81
64904;BMP280;51401;48.882;12.598;2022-12-11T09:23:59;98154.97;;;0.94
64904;BMP280;51401;48.882;12.598;2022-12-11T09:26:26;98093.41;;;1.17
64904;BMP280;51401;48.882;12.598;2022-12-11T09:28:52;98048.41;;;1.29
64904;BMP280;51401;48.882;12.598;2022-12-11T09:31:24;97946.72;;;1.40
64904;BMP280;51401;48.882;12.598;2022-12-11T09:33:54;97862.94;;;1.25
64904;BMP280;51401;48.882;12.598;2022-12-11T09:36:21;97801.34;;;1.18
64904;BMP280;51401;48.882;12.598;2022-12-11T09:38:47;97758.84;;;1.30
64904;BMP280;51401;48.882;12.598;2022-12-11T09:41:25;97742.00;;;1.38
64904;BMP280;51401;48.882;12.598;2022-12-11T09:46:33;97640.59;;;1.09
64904;BMP280;51401;48.882;12.598;2022-12-11T09:49:01;97633.47;;;1.32
64904;BMP280;51401;48.882;12.598;2022-12-11T09:51:35;97579.34;;;1.38
64904;BMP280;51401;48.882;12.598;2022-12-11T09:54:04;97543.63;;;1.38
64904;BMP280;51401;48.882;12.598;2022-12-11T09:56:38;97519.13;;;1.37
64904;BMP280;51401;48.882;12.598;2022-12-11T10:02:21;97462.72;;;1.30
64904;BMP280;51401;48.882;12.598;2022-12-11T10:07:45;97430.84;;;0.96
64904;BMP280;51401;48.882;12.598;2022-12-11T10:12:54;97387.81;;;1.14
64904;BMP280;51401;48.882;12.598;2022-12-11T10:18:16;97315.41;;;1.31
64904;BMP280;51401;48.882;12.598;2022-12-11T10:20:42;97289.81;;;1.27
64904;BMP280;51401;48.882;12.598;2022-12-11T10:23:15;97233.31;;;1.17
64904;BMP280;51401;48.882;12.598;2022-12-11T10:26:24;97252.59;;;1.26
64904;BMP280;51401;48.882;12.598;2022-12-11T10:28:42;97230.50;;;1.10
64904;BMP280;51401;48.882;12.598;2022-12-11T10:36:18;97145.38;;;1.38
64904;BMP280;51401;48.882;12.598;2022-12-11T10:38:45;97140.16;;;1.46
64904;BMP280;51401;48.882;12.598;2022-12-11T10:41:18;97107.81;;;1.39
64904;BMP280;51401;48.882;12.598;2022-12-11T10:43:49;97093.66;;;1.41
64904;BMP280;51401;48.882;12.598;2022-12-11T10:46:16;97075.84;;;1.17
64904;BMP280;51401;48.882;12.598;2022-12-11T10:48:52;97057.66;;;0.83
64904;BMP280;51401;48.882;12.598;2022-12-11T10:51:20;97040.97;;;0.86
64904;BMP280;51401;48.882;12.598;2022-12-11T10:53:53;97013.88;;;0.70
64904;BMP280;51401;48.882;12.598;2022-12-11T10:56:31;97006.31;;;0.49
64904;BMP280;51401;48.882;12.598;2022-12-11T10:58:59;96991.88;;;0.53
64904;BMP280;51401;48.882;12.598;2022-12-11T11:01:29;97001.41;;;0.44
64904;BMP280;51401;48.882;12.598;2022-12-11T11:04:01;96997.72;;;0.66
64904;BMP280;51401;48.882;12.598;2022-12-11T11:06:31;96998.44;;;0.66
64904;BMP280;51401;48.882;12.598;2022-12-11T11:08:58;96978.25;;;0.37
64904;BMP280;51401;48.882;12.598;2022-12-11T11:11:25;96968.16;;;0.41
64904;BMP280;51401;48.882;12.598;2022-12-11T11:14:02;96916.88;;;0.42
64904;BMP280;51401;48.882;12.598;2022-12-11T11:16:28;96898.81;;;0.47
64904;BMP280;51401;48.882;12.598;2022-12-11T11:18:54;96868.03;;;0.40
64904;BMP280;51401;48.882;12.598;2022-12-11T11:21:24;96864.19;;;0.34
64904;BMP280;51401;48.882;12.598;2022-12-11T11:23:51;96842.94;;;0.54
64904;BMP280;51401;48.882;12.598;2022-12-11T11:26:17;96832.13;;;0.57
64904;BMP280;51401;48.882;12.598;2022-12-11T11:28:49;96813.66;;;0.48
64904;BMP280;51401;48.882;12.598;2022-12-11T11:31:16;96797.09;;;0.42
64904;BMP280;51401;48.882;12.598;2022-12-11T11:33:55;96784.34;;;0.54
64904;BMP280;51401;48.882;12.598;2022-12-11T11:36:30;96775.59;;;0.67
64904;BMP280;51401;48.882;12.598;2022-12-11T11:39:06;96754.28;;;0.87
64904;BMP280;51401;48.882;12.598;2022-12-11T11:41:45;96743.75;;;0.61
64904;BMP280;51401;48.882;12.598;2022-12-11T11:44:15;96739.72;;;0.87
64904;BMP280;51401;48.882;12.598;2022-12-11T11:46:49;96722.97;;;0.74
64904;BMP280;51401;48.882;12.598;2022-12-11T11:49:23;96698.31;;;0.78
64904;BMP280;51401;48.882;12.598;2022-12-11T11:51:56;96663.13;;;0.41
64904;BMP280;51401;48.882;12.598;2022-12-11T11:54:36;96661.00;;;0.59
64904;BMP280;51401;48.882;12.598;2022-12-11T11:57:38;96639.00;;;0.39
64904;BMP280;51401;48.882;12.598;2022-12-11T12:00:20;96635.78;;;0.54
64904;BMP280;51401;48.882;12.598;2022-12-11T12:02:55;96626.34;;;0.70
64904;BMP280;51401;48.882;12.598;2022-12-11T12:06:09;96610.31;;;0.69
64904;BMP280;51401;48.882;12.598;2022-12-11T12:08:56;96594.91;;;0.66
64904;BMP280;51401;48.882;12.598;2022-12-11T12:11:26;96586.78;;;1.06
64904;BMP280;51401;48.882;12.598;2022-12-11T12:14:01;96576.03;;;0.97
64904;BMP280;51401;48.882;12.598;2022-12-11T12:17:16;96561.78;;;0.96
64904;BMP280;51401;48.882;12.598;2022-12-11T12:19:35;96550.50;;;0.97
64904;BMP280;51401;48.882;12.598;2022-12-11T12:22:26;96548.63;;;0.79
64904;BMP280;51401;48.882;12.598;2022-12-11T12:30:25;96523.28;;;0.86
64904;BMP280;51401;48.882;12.598;2022-12-11T12:32:58;96497.28;;;0.80
64904;BMP280;51401;48.882;12.598;2022-12-11T12:35:36;96491.22;;;0.85
64904;BMP280;51401;48.882;12.598;2022-12-11T12:40:40;96476.44;;;0.75
64904;BMP280;51401;48.882;12.598;2022-12-11T12:45:52;96463.34;;;0.76
64904;BMP280;51401;48.882;12.598;2022-12-11T12:48:20;96454.22;;;0.60
64904;BMP280;51401;48.882;12.598;2022-12-11T12:50:48;96446.34;;;0.65
64904;BMP280;51401;48.882;12.598;2022-12-11T12:53:27;96442.50;;;0.90
64904;BMP280;51401;48.882;12.598;2022-12-11T12:55:55;96444.00;;;0.91
64904;BMP280;51401;48.882;12.598;2022-12-11T13:00:48;96432.16;;;0.83
64904;BMP280;51401;48.882;12.598;2022-12-11T13:03:16;96427.06;;;0.83
64904;BMP280;51401;48.882;12.598;2022-12-11T13:05:54;96416.19;;;0.86
64904;BMP280;51401;48.882;12.598;2022-12-11T13:08:29;96416.91;;;0.52
64904;BMP280;51401;48.882;12.598;2022-12-11T13:11:04;96404.06;;;0.64
64904;BMP280;51401;48.882;12.598;2022-12-11T13:13:36;96391.94;;;0.42
64904;BMP280;51401;48.882;12.598;2022-12-11T13:16:38;96387.34;;;0.33
64904;BMP280;51401;48.882;12.598;2022-12-11T13:21:54;96367.69;;;0.30
64904;BMP280;51401;48.882;12.598;2022-12-11T13:26:46;96340.72;;;0.29
64904;BMP280;51401;48.882;12.598;2022-12-11T13:29:32;96327.34;;;0.16
64904;BMP280;51401;48.882;12.598;2022-12-11T13:34:36;96303.81;;;0.23
64904;BMP280;51401;48.882;12.598;2022-12-11T13:37:03;96289.50;;;0.34
64904;BMP280;51401;48.882;12.598;2022-12-11T13:39:31;96273.84;;;0.35
64904;BMP280;51401;48.882;12.598;2022-12-11T13:42:01;96262.59;;;0.36
64904;BMP280;51401;48.882;12.598;2022-12-11T13:44:30;96249.16;;;0.73
64904;BMP280;51401;48.882;12.598;2022-12-11T13:46:59;96226.16;;;0.92
64904;BMP280;51401;48.882;12.598;2022-12-11T13:49:29;96210.88;;;0.92
64904;BMP280;51401;48.882;12.598;2022-12-11T13:51:59;96203.78;;;0.82
64904;BMP280;51401;48.882;12.598;2022-12-11T13:54:26;96204.19;;;1.06
64904;BMP280;51401;48.882;12.598;2022-12-11T13:56:54;96211.66;;;0.96
64904;BMP280;51401;48.882;12.598;2022-12-11T13:59:26;96212.63;;;0.88
64904;BMP280;51401;48.882;12.598;2022-12-11T14:01:54;96216.53;;;0.82
64904;BMP280;51401;48.882;12.598;2022-12-11T14:04:21;96226.59;;;0.56
64904;BMP280;51401;48.882;12.598;2022-12-11T14:06:47;96218.59;;;0.39
64904;BMP280;51401;48.882;12.598;2022-12-11T14:09:18;96225.03;;;0.33
64904;BMP280;51401;48.882;12.598;2022-12-11T14:11:45;96231.06;;;0.22
64904;BMP280;51401;48.882;12.598;2022-12-11T14:14:22;96222.25;;;0.19
64904;BMP280;51401;48.882;12.598;2022-12-11T14:16:50;96195.16;;;0.11
64904;BMP280;51401;48.882;12.598;2022-12-11T14:19:18;96197.72;;;0.11
64904;BMP280;51401;48.882;12.598;2022-12-11T14:21:54;96181.84;;;0.18
64904;BMP280;51401;48.882;12.598;2022-12-11T14:24:20;96196.72;;;0.16
64904;BMP280;51401;48.882;12.598;2022-12-11T14:26:50;96196.84;;;0.23
64904;BMP280;51401;48.882;12.598;2022-12-11T14:29:26;96199.81;;;0.25
64904;BMP280;51401;48.882;12.598;2022-12-11T14:31:52;96200.06;;;0.01
64904;BMP280;51401;48.882;12.598;2022-12-11T14:34:23;96217.06;;;-0.03
64904;BMP280;51401;48.882;12.598;2022-12-11T14:36:49;96215.56;;;-0.04
64904;BMP280;51401;48.882;12.598;2022-12-11T14:39:20;96199.69;;;-0.16
64904;BMP280;51401;48.882;12.598;2022-12-11T14:44:41;96191.16;;;-0.24
64904;BMP280;51401;48.882;12.598;2022-12-11T14:47:17;96190.00;;;-0.26
64904;BMP280;51401;48.882;12.598;2022-12-11T14:49:57;96170.53;;;-0.34
64904;BMP280;51401;48.882;12.598;2022-12-11T14:52:32;96150.06;;;-0.41
64904;BMP280;51401;48.882;12.598;2022-12-11T14:55:07;96137.34;;;-0.41
64904;BMP280;51401;48.882;12.598;2022-12-11T14:57:34;96118.75;;;-0.41
64904;BMP280;51401;48.882;12.598;2022-12-11T15:00:01;96111.09;;;-0.45
64904;BMP280;51401;48.882;12.598;2022-12-11T15:02:29;96108.47;;;-0.48
64904;BMP280;51401;48.882;12.598;2022-12-11T15:10:36;96091.72;;;-0.49
64904;BMP280;51401;48.882;12.598;2022-12-11T15:13:06;96084.06;;;-0.49
64904;BMP280;51401;48.882;12.598;2022-12-11T15:15:37;96088.09;;;-0.48